Nonthaburi, Thailand
Current Conditions -  °F | °C
As of 12:00 PM on Tuesday 21 Oct 2014 (Local Time) from VTBD Reporting Station
Broken Clouds Broken Clouds  
Wind Chill: 31°   Ceiling: 30000
Heat Index: 36°   Visibility: 6mi
Dew Point: 24°   Wind: 6mph
Humidity: 66%   Direction: 320°NW
Pressure: 29.94"   Gusts: NA
Location:  13.84°N, 100.52°E
Report Text: VTBD 210500Z 32005KT 260V020 9999 FEW020 SCT035 BKN300 31/24 Q1014 NOSIG
Loading
Personal Weather Stations






























Interactive Weather Map
Tropical Storm Tracking
New forecast layout! Learn more

10-Day Weather Forecast

Advertisements
Track Severe Weather on mobile